Udo Maru — JM6522 — position and weather

sailwx.info

Track history (hours):
 
Tides and Currents Weather Stations Pressure Air Temp Water Temp Dewpoint Dewpoint Depression Visibility Wind Speed Wind Dir Waves Ship Positions

Udo Maru

Last reported at 2017-Feb-17 23:29 UTC. Time now 2017-Feb-19 23:26 UTC.
Position N 33°37' E 132°13'.

Length 87 m; draft 4.9 m.

Type: Cargo ship. MMSI: 431600499.

Date/timePositionNaut miles runAvg speedWind from/ knotsBaromVisibWave heightAir tempDewpointWater temp
2017-Feb-17 23:29N 33°37' E 132°13'1010.9
2017-Feb-17 22:33N 33°43' E 132°22'1111.5
2017-Feb-17 21:33N 33°50' E 132°33'1211.9
2017-Feb-17 20:33N 33°59' E 132°43'11410.3
2017-Feb-17 09:32N 34°35' E 134°53'8 8.0
2017-Feb-17 08:33N 34°36' E 135°03'9 8.8
2017-Feb-17 07:31N 34°27' E 135°04'1110.5
2017-Feb-17 06:26N 34°16' E 134°59'1011.0
2017-Feb-17 05:33N 34°07' E 135°01'244 8.4
2017-Feb-16 00:23N 35°12' E 139°46'911.3
2017-Feb-15 23:33N 35°21' E 139°42'9 8.7
2017-Feb-15 22:33N 35°29' E 139°48'0 0.0
2017-Feb-15 21:30N 35°29' E 139°48'0 0.0
2017-Feb-15 20:33N 35°28' E 139°48'0 0.0
2017-Feb-15 19:33N 35°29' E 139°48'0 0.0
2017-Feb-15 18:33N 35°28' E 139°48'0 0.0
2017-Feb-15 17:33N 35°28' E 139°48'3 3.3
2017-Feb-15 16:33N 35°25' E 139°47'5 5.5
2017-Feb-15 15:33N 35°21' E 139°51'0 0.0
2017-Feb-15 14:28N 35°21' E 139°51'0 0.0
2017-Feb-15 13:28N 35°21' E 139°51'0 0.0
2017-Feb-15 12:31N 35°21' E 139°51'0 0.0
2017-Feb-15 11:31N 35°21' E 139°51'0 0.0
2017-Feb-15 10:31N 35°21' E 139°51'0 0.0
2017-Feb-15 09:31N 35°21' E 139°51'0 0.0
2017-Feb-15 08:31N 35°21' E 139°51'0 0.0
2017-Feb-15 07:28N 35°21' E 139°51'0 0.0
2017-Feb-15 06:31N 35°21' E 139°51'0 0.0
2017-Feb-15 05:25N 35°21' E 139°51'0 0.0
2017-Feb-15 04:31N 35°21' E 139°51'0 0.0
2017-Feb-15 03:31N 35°21' E 139°51'0 0.0
2017-Feb-15 02:31N 35°21' E 139°51'0 0.0
2017-Feb-15 01:31N 35°21' E 139°51'0 0.0
2017-Feb-15 00:31N 35°21' E 139°51'0 0.0
2017-Feb-14 19:19N 35°21' E 139°51'0 0.3
2017-Feb-14 18:28N 35°21' E 139°51'0 0.0
2017-Feb-14 08:32N 35°21' E 139°51'0 0.0
2017-Feb-14 07:32N 35°21' E 139°51'0 0.0
2017-Feb-14 06:32N 35°21' E 139°51'0 0.0
2017-Feb-14 05:32N 35°21' E 139°51'0 0.0
2017-Feb-14 04:32N 35°21' E 139°51'3 2.6
2017-Feb-14 03:32N 35°23' E 139°49'0 0.0
2017-Feb-14 02:26N 35°23' E 139°49'0 0.0
2017-Feb-14 01:32N 35°23' E 139°49'0 0.0
2017-Feb-14 00:32N 35°23' E 139°49'0 0.0
2017-Feb-13 23:29N 35°23' E 139°49'0 0.1
2017-Feb-13 22:32N 35°23' E 139°49'0 0.0
2017-Feb-13 21:32N 35°23' E 139°49'0 0.1
2017-Feb-13 20:32N 35°23' E 139°49'2 2.0
2017-Feb-13 19:27N 35°22' E 139°51'0 0.0
2017-Feb-13 18:30N 35°22' E 139°51'0 0.0
2017-Feb-13 17:33N 35°22' E 139°51'0 0.0
2017-Feb-13 16:33N 35°22' E 139°51'0 0.0
2017-Feb-13 15:33N 35°22' E 139°51'0 0.0
2017-Feb-13 14:21N 35°22' E 139°51'0 0.0
2017-Feb-13 13:33N 35°22' E 139°51'2 1.8
2017-Feb-13 12:28N 35°22' E 139°49'0 0.0
2017-Feb-13 11:31N 35°22' E 139°49'0 0.0
2017-Feb-13 10:31N 35°22' E 139°49'0 0.0
2017-Feb-13 09:31N 35°22' E 139°49'0 0.1
2017-Feb-13 08:25N 35°23' E 139°49'0 0.0
2017-Feb-13 07:28N 35°23' E 139°49'0 0.1
2017-Feb-13 06:28N 35°22' E 139°49'0 0.0
2017-Feb-13 05:31N 35°22' E 139°49'0 0.1
2017-Feb-13 04:31N 35°22' E 139°49'0 0.1
2017-Feb-13 03:31N 35°22' E 139°49'0 0.1
2017-Feb-13 02:31N 35°22' E 139°49'0 0.0
2017-Feb-13 01:31N 35°22' E 139°49'0 0.0
2017-Feb-13 00:28N 35°22' E 139°49'0 0.1
2017-Feb-12 23:31N 35°22' E 139°49'0 0.0
2017-Feb-12 22:31N 35°22' E 139°49'0 0.0
2017-Feb-12 21:31N 35°22' E 139°49'0 0.0
2017-Feb-12 20:28N 35°22' E 139°49'0 0.0
2017-Feb-12 19:31N 35°22' E 139°49'0 0.1
2017-Feb-12 18:31N 35°22' E 139°49'0 0.0
2017-Feb-12 17:31N 35°22' E 139°49'0 0.0
2017-Feb-12 16:31N 35°22' E 139°49'0 0.0
2017-Feb-12 15:31N 35°22' E 139°49'0 0.0
2017-Feb-12 14:31N 35°22' E 139°49'0 0.0
2017-Feb-12 13:31N 35°22' E 139°49'0 0.0
2017-Feb-12 12:31N 35°22' E 139°49'0 0.0
2017-Feb-12 11:31N 35°22' E 139°49'0 0.0
2017-Feb-12 10:28N 35°22' E 139°49'0 0.0
2017-Feb-12 09:31N 35°22' E 139°49'0 0.0
2017-Feb-12 08:31N 35°22' E 139°49'0 0.1
2017-Feb-12 07:31N 35°22' E 139°49'0 0.1
2017-Feb-12 06:31N 35°23' E 139°49'0 0.0
2017-Feb-12 05:33N 35°23' E 139°49'7 6.7
2017-Feb-12 04:33N 35°16' E 139°46'1110.4
2017-Feb-12 03:32N 35°06' E 139°43'242 9.5
2017-Feb-11 02:09N 34°02' E 134°60'711.4
2017-Feb-11 01:33N 34°08' E 134°59'11 9.9
2017-Feb-11 00:23N 34°20' E 134°60'810.0
2017-Feb-10 23:33N 34°28' E 135°01'8 8.3
2017-Feb-10 22:33N 34°36' E 135°02'8 7.6
2017-Feb-10 21:33N 34°35' E 134°53'11411.3
2017-Feb-10 11:29N 33°58' E 132°43'1212.6
2017-Feb-10 10:32N 33°50' E 132°33'33 1.2
2017-Feb-09 07:32N 33°50' E 131°53'21 0.8
2017-Feb-08 06:06N 33°38' E 132°15'712.7
2017-Feb-08 05:32N 33°43' E 132°22'1212.8
2017-Feb-08 04:34N 33°51' E 132°33'1312.6
2017-Feb-08 03:32N 33°60' E 132°44'  
Track history (hours):
 
Tides and Currents Weather Stations Pressure Air Temp Water Temp Dewpoint Dewpoint Depression Visibility Wind Speed Wind Dir Waves Ship Positions

Udo Maru

Last reported at 2017-Feb-17 23:29 UTC. Time now 2017-Feb-19 23:26 UTC.
Position N 33°37' E 132°13'.

Length 87 m; draft 4.9 m.

Type: Cargo ship. MMSI: 431600499.

Date/timePositionNaut miles runAvg speedWind from/ knotsBaromVisibWave heightAir tempDewpointWater temp
2017-Feb-17 23:29N 33°37' E 132°13'1010.9
2017-Feb-17 22:33N 33°43' E 132°22'1111.5
2017-Feb-17 21:33N 33°50' E 132°33'1211.9
2017-Feb-17 20:33N 33°59' E 132°43'11410.3
2017-Feb-17 09:32N 34°35' E 134°53'8 8.0
2017-Feb-17 08:33N 34°36' E 135°03'9 8.8
2017-Feb-17 07:31N 34°27' E 135°04'1110.5
2017-Feb-17 06:26N 34°16' E 134°59'1011.0
2017-Feb-17 05:33N 34°07' E 135°01'244 8.4
2017-Feb-16 00:23N 35°12' E 139°46'911.3
2017-Feb-15 23:33N 35°21' E 139°42'9 8.7
2017-Feb-15 22:33N 35°29' E 139°48'0 0.0
2017-Feb-15 21:30N 35°29' E 139°48'0 0.0
2017-Feb-15 20:33N 35°28' E 139°48'0 0.0
2017-Feb-15 19:33N 35°29' E 139°48'0 0.0
2017-Feb-15 18:33N 35°28' E 139°48'0 0.0
2017-Feb-15 17:33N 35°28' E 139°48'3 3.3
2017-Feb-15 16:33N 35°25' E 139°47'5 5.5
2017-Feb-15 15:33N 35°21' E 139°51'0 0.0
2017-Feb-15 14:28N 35°21' E 139°51'0 0.0
2017-Feb-15 13:28N 35°21' E 139°51'0 0.0
2017-Feb-15 12:31N 35°21' E 139°51'0 0.0
2017-Feb-15 11:31N 35°21' E 139°51'0 0.0
2017-Feb-15 10:31N 35°21' E 139°51'0 0.0
2017-Feb-15 09:31N 35°21' E 139°51'0 0.0
2017-Feb-15 08:31N 35°21' E 139°51'0 0.0
2017-Feb-15 07:28N 35°21' E 139°51'0 0.0
2017-Feb-15 06:31N 35°21' E 139°51'0 0.0
2017-Feb-15 05:25N 35°21' E 139°51'0 0.0
2017-Feb-15 04:31N 35°21' E 139°51'0 0.0
2017-Feb-15 03:31N 35°21' E 139°51'0 0.0
2017-Feb-15 02:31N 35°21' E 139°51'0 0.0
2017-Feb-15 01:31N 35°21' E 139°51'0 0.0
2017-Feb-15 00:31N 35°21' E 139°51'0 0.0
2017-Feb-14 19:19N 35°21' E 139°51'0 0.3
2017-Feb-14 18:28N 35°21' E 139°51'0 0.0
2017-Feb-14 08:32N 35°21' E 139°51'0 0.0
2017-Feb-14 07:32N 35°21' E 139°51'0 0.0
2017-Feb-14 06:32N 35°21' E 139°51'0 0.0
2017-Feb-14 05:32N 35°21' E 139°51'0 0.0
2017-Feb-14 04:32N 35°21' E 139°51'3 2.6
2017-Feb-14 03:32N 35°23' E 139°49'0 0.0
2017-Feb-14 02:26N 35°23' E 139°49'0 0.0
2017-Feb-14 01:32N 35°23' E 139°49'0 0.0
2017-Feb-14 00:32N 35°23' E 139°49'0 0.0
2017-Feb-13 23:29N 35°23' E 139°49'0 0.1
2017-Feb-13 22:32N 35°23' E 139°49'0 0.0
2017-Feb-13 21:32N 35°23' E 139°49'0 0.1
2017-Feb-13 20:32N 35°23' E 139°49'2 2.0
2017-Feb-13 19:27N 35°22' E 139°51'0 0.0
2017-Feb-13 18:30N 35°22' E 139°51'0 0.0
2017-Feb-13 17:33N 35°22' E 139°51'0 0.0
2017-Feb-13 16:33N 35°22' E 139°51'0 0.0
2017-Feb-13 15:33N 35°22' E 139°51'0 0.0
2017-Feb-13 14:21N 35°22' E 139°51'0 0.0
2017-Feb-13 13:33N 35°22' E 139°51'2 1.8
2017-Feb-13 12:28N 35°22' E 139°49'0 0.0
2017-Feb-13 11:31N 35°22' E 139°49'0 0.0
2017-Feb-13 10:31N 35°22' E 139°49'0 0.0
2017-Feb-13 09:31N 35°22' E 139°49'0 0.1
2017-Feb-13 08:25N 35°23' E 139°49'0 0.0
2017-Feb-13 07:28N 35°23' E 139°49'0 0.1
2017-Feb-13 06:28N 35°22' E 139°49'0 0.0
2017-Feb-13 05:31N 35°22' E 139°49'0 0.1
2017-Feb-13 04:31N 35°22' E 139°49'0 0.1
2017-Feb-13 03:31N 35°22' E 139°49'0 0.1
2017-Feb-13 02:31N 35°22' E 139°49'0 0.0
2017-Feb-13 01:31N 35°22' E 139°49'0 0.0
2017-Feb-13 00:28N 35°22' E 139°49'0 0.1
2017-Feb-12 23:31N 35°22' E 139°49'0 0.0
2017-Feb-12 22:31N 35°22' E 139°49'0 0.0
2017-Feb-12 21:31N 35°22' E 139°49'0 0.0
2017-Feb-12 20:28N 35°22' E 139°49'0 0.0
2017-Feb-12 19:31N 35°22' E 139°49'0 0.1
2017-Feb-12 18:31N 35°22' E 139°49'0 0.0
2017-Feb-12 17:31N 35°22' E 139°49'0 0.0
2017-Feb-12 16:31N 35°22' E 139°49'0 0.0
2017-Feb-12 15:31N 35°22' E 139°49'0 0.0
2017-Feb-12 14:31N 35°22' E 139°49'0 0.0
2017-Feb-12 13:31N 35°22' E 139°49'0 0.0
2017-Feb-12 12:31N 35°22' E 139°49'0 0.0
2017-Feb-12 11:31N 35°22' E 139°49'0 0.0
2017-Feb-12 10:28N 35°22' E 139°49'0 0.0
2017-Feb-12 09:31N 35°22' E 139°49'0 0.0
2017-Feb-12 08:31N 35°22' E 139°49'0 0.1
2017-Feb-12 07:31N 35°22' E 139°49'0 0.1
2017-Feb-12 06:31N 35°23' E 139°49'0 0.0
2017-Feb-12 05:33N 35°23' E 139°49'7 6.7
2017-Feb-12 04:33N 35°16' E 139°46'1110.4
2017-Feb-12 03:32N 35°06' E 139°43'242 9.5
2017-Feb-11 02:09N 34°02' E 134°60'711.4
2017-Feb-11 01:33N 34°08' E 134°59'11 9.9
2017-Feb-11 00:23N 34°20' E 134°60'810.0
2017-Feb-10 23:33N 34°28' E 135°01'8 8.3
2017-Feb-10 22:33N 34°36' E 135°02'8 7.6
2017-Feb-10 21:33N 34°35' E 134°53'11411.3
2017-Feb-10 11:29N 33°58' E 132°43'1212.6
2017-Feb-10 10:32N 33°50' E 132°33'33 1.2
2017-Feb-09 07:32N 33°50' E 131°53'21 0.8
2017-Feb-08 06:06N 33°38' E 132°15'712.7
2017-Feb-08 05:32N 33°43' E 132°22'1212.8
2017-Feb-08 04:34N 33°51' E 132°33'1312.6
2017-Feb-08 03:32N 33°60' E 132°44'  

Dump ship's entire track history